Edgar Oldendorff — CQYN — position and weather

sailwx.info

Track history (hours):
 
Tides and Currents Weather Stations Pressure Air Temp Water Temp Dewpoint Dewpoint Depression Visibility Wind Speed Wind Dir Waves Ship Positions

Edgar Oldendorff

Last reported at 2018-Jan-20 18:33 UTC. Time now 2018-Jan-21 23:56 UTC.
Position N 45°47' W 125°32'.

Length 179 m; draft 8.8 m.

Type: Cargo ship. MMSI: 255805893.

Date/timePositionNaut miles runAvg speedWind from/ knotsBaromVisibWave heightAir tempDewpointWater temp
2018-Jan-20 18:33N 45°47' W 125°32'1 8.8
2018-Jan-20 18:27N 45°47' W 125°31'4 8.8
2018-Jan-20 17:59N 45°48' W 125°25'5 9.4
2018-Jan-20 17:30N 45°50' W 125°19'4 8.9
2018-Jan-20 17:00N 45°52' W 125°13'5 9.1
2018-Jan-20 16:30N 45°54' W 125°07'4 8.9
2018-Jan-20 16:00N 45°55' W 125°02'4 8.6
2018-Jan-20 15:30N 45°57' W 124°56'4 8.7
2018-Jan-20 15:00N 45°59' W 124°50'4 9.0
2018-Jan-20 14:30N 46°01' W 124°45'4 8.9
2018-Jan-20 14:00N 46°03' W 124°39'4 8.9
2018-Jan-20 13:30N 46°05' W 124°33'5 9.1
2018-Jan-20 13:00N 46°07' W 124°27'4 8.8
2018-Jan-20 12:30N 46°09' W 124°22'4 8.5
2018-Jan-20 12:00N 46°11' W 124°16'5 8.4
2018-Jan-20 11:25N 46°13' W 124°10'3 7.4
2018-Jan-20 11:00N 46°15' W 124°06'4 8.6
2018-Jan-20 10:30N 46°14' W 123°60'510.1
2018-Jan-20 10:00N 46°11' W 123°54'4 8.1
2018-Jan-20 09:30N 46°12' W 123°48'5 9.2
2018-Jan-20 09:00N 46°15' W 123°42'612.0
2018-Jan-20 08:30N 46°15' W 123°34'611.3
2018-Jan-20 08:00N 46°14' W 123°26'611.3
2018-Jan-20 07:30N 46°09' W 123°23'713.7
2018-Jan-20 07:00N 46°10' W 123°13'613.0
2018-Jan-20 06:31N 46°09' W 123°04'611.3
2018-Jan-20 06:00N 46°06' W 122°57'0 0.2
2018-Jan-20 05:30N 46°06' W 122°57'0 0.0
2018-Jan-20 05:00N 46°06' W 122°57'0 0.0
2018-Jan-20 04:30N 46°06' W 122°57'0 0.0
2018-Jan-20 04:01N 46°06' W 122°57'0 0.0
2018-Jan-20 03:31N 46°06' W 122°57'0 0.0
2018-Jan-20 02:57N 46°06' W 122°57'0 0.0
2018-Jan-20 02:27N 46°06' W 122°57'0 0.0
2018-Jan-20 02:00N 46°06' W 122°57'0 0.0
2018-Jan-20 01:30N 46°06' W 122°57'0 0.0
2018-Jan-20 01:00N 46°06' W 122°57'0 0.0
2018-Jan-19 23:42N 46°06' W 122°57'0 0.0
2018-Jan-19 23:30N 46°06' W 122°57'0 0.0
2018-Jan-19 23:00N 46°06' W 122°57'0 0.0
2018-Jan-19 21:51N 46°06' W 122°57'0 0.0
2018-Jan-19 21:24N 46°06' W 122°57'0 0.0
2018-Jan-19 21:00N 46°06' W 122°57'0 0.0
2018-Jan-19 20:27N 46°06' W 122°57'0 0.0
2018-Jan-19 20:01N 46°06' W 122°57'0 0.0
2018-Jan-19 19:15N 46°06' W 122°57'0 0.0
2018-Jan-19 19:01N 46°06' W 122°57'0 0.0
2018-Jan-19 18:30N 46°06' W 122°57'0 0.0
2018-Jan-19 18:00N 46°06' W 122°57'0 0.0
2018-Jan-19 17:30N 46°06' W 122°57'0 0.0
2018-Jan-19 17:00N 46°06' W 122°57'0 0.0
2018-Jan-19 16:30N 46°06' W 122°57'0 0.0
2018-Jan-19 16:00N 46°06' W 122°57'0 0.0
2018-Jan-19 15:28N 46°06' W 122°57'0 0.0
2018-Jan-19 15:00N 46°06' W 122°57'0 0.0
2018-Jan-19 14:27N 46°06' W 122°57'0 0.0
2018-Jan-19 14:00N 46°06' W 122°57'0 0.0
2018-Jan-19 13:31N 46°06' W 122°57'0 0.0
2018-Jan-19 13:00N 46°06' W 122°57'0 0.0
2018-Jan-19 12:27N 46°06' W 122°57'0 0.0
2018-Jan-19 11:51N 46°06' W 122°57'0 0.0
2018-Jan-19 11:30N 46°06' W 122°57'0 0.0
2018-Jan-19 10:57N 46°06' W 122°57'0 0.0
2018-Jan-19 10:21N 46°06' W 122°57'0 0.0
2018-Jan-19 09:57N 46°06' W 122°57'0 0.0
2018-Jan-19 09:31N 46°06' W 122°57'0 0.0
2018-Jan-19 09:01N 46°06' W 122°57'0 0.0
2018-Jan-19 08:16N 46°06' W 122°57'0 0.0
2018-Jan-19 08:00N 46°06' W 122°57'0 0.0
2018-Jan-19 07:30N 46°06' W 122°57'0 0.0
2018-Jan-19 06:57N 46°06' W 122°57'0 0.0
2018-Jan-19 06:28N 46°06' W 122°57'0 0.0
2018-Jan-19 06:01N 46°06' W 122°57'0 0.0
2018-Jan-19 05:30N 46°06' W 122°57'0 0.0
2018-Jan-19 04:57N 46°06' W 122°57'0 0.0
2018-Jan-19 04:27N 46°06' W 122°57'0 0.0
2018-Jan-19 04:01N 46°06' W 122°57'0 0.0
2018-Jan-19 03:24N 46°06' W 122°57'0 0.0
2018-Jan-19 03:00N 46°06' W 122°57'0 0.0
2018-Jan-19 02:27N 46°06' W 122°57'0 0.0
2018-Jan-19 02:00N 46°06' W 122°57'0 0.0
2018-Jan-19 01:30N 46°06' W 122°57'0 0.0
2018-Jan-19 00:42N 46°06' W 122°57'0 0.0
2018-Jan-19 00:31N 46°06' W 122°57'0 0.0
2018-Jan-19 00:00N 46°06' W 122°57'0 0.0
2018-Jan-18 23:27N 46°06' W 122°57'0 0.0
2018-Jan-18 23:00N 46°06' W 122°57'0 0.0
2018-Jan-18 22:27N 46°06' W 122°57'0 0.0
2018-Jan-18 22:00N 46°06' W 122°57'0 0.0
2018-Jan-18 21:31N 46°06' W 122°57'0 0.0
2018-Jan-18 20:42N 46°06' W 122°57'0 0.0
2018-Jan-18 20:31N 46°06' W 122°57'0 0.0
2018-Jan-18 20:00N 46°06' W 122°57'0 0.0
2018-Jan-18 19:30N 46°06' W 122°57'0 0.0
2018-Jan-18 19:00N 46°06' W 122°57'0 0.0
2018-Jan-18 18:27N 46°06' W 122°57'0 0.0
2018-Jan-18 18:00N 46°06' W 122°57'0 0.0
2018-Jan-18 17:31N 46°06' W 122°57'0 0.0
2018-Jan-18 16:57N 46°06' W 122°57'0 0.0
2018-Jan-18 16:30N 46°06' W 122°57'0 0.0
2018-Jan-18 15:57N 46°06' W 122°57'0 0.0
2018-Jan-18 15:27N 46°06' W 122°57'0 0.0
2018-Jan-18 15:00N 46°06' W 122°57'0 0.0
2018-Jan-18 14:30N 46°06' W 122°57'0 0.0
2018-Jan-18 14:00N 46°06' W 122°57'0 0.0
2018-Jan-18 13:27N 46°06' W 122°57'0 0.0
2018-Jan-18 12:48N 46°06' W 122°57'0 0.0
2018-Jan-18 12:31N 46°06' W 122°57'0 0.0
2018-Jan-18 12:01N 46°06' W 122°57'0 0.0
2018-Jan-18 11:31N 46°06' W 122°57'0 0.0
2018-Jan-18 11:00N 46°06' W 122°57'0 0.0
2018-Jan-18 10:30N 46°06' W 122°57'0 0.0
2018-Jan-18 10:00N 46°06' W 122°57'0 0.0
2018-Jan-18 09:30N 46°06' W 122°57'0 0.0
2018-Jan-18 08:58N 46°06' W 122°57'0 0.0
2018-Jan-18 08:31N 46°06' W 122°57'0 0.0
2018-Jan-18 07:58N 46°06' W 122°57'0 0.0
2018-Jan-18 07:30N 46°06' W 122°57'0 0.0
2018-Jan-18 06:57N 46°06' W 122°57'0 0.0
2018-Jan-18 06:27N 46°06' W 122°57'0 0.0
2018-Jan-18 06:00N 46°06' W 122°57'0 0.0
2018-Jan-18 05:30N 46°06' W 122°57'0 0.0
2018-Jan-18 05:00N 46°06' W 122°57'0 0.0
2018-Jan-18 04:31N 46°06' W 122°57'0 0.0
2018-Jan-18 04:00N 46°06' W 122°57'0 0.0
2018-Jan-18 03:30N 46°06' W 122°57'0 0.0
2018-Jan-18 03:01N 46°06' W 122°57'0 0.0
2018-Jan-18 02:28N 46°06' W 122°57'0 0.0
2018-Jan-18 01:42N 46°06' W 122°57'0 0.0
2018-Jan-18 01:19N 46°06' W 122°57'0 0.0
2018-Jan-18 01:00N 46°06' W 122°57'0 0.0
2018-Jan-18 00:01N 46°06' W 122°57'0 0.0
2018-Jan-17 23:57N 46°06' W 122°57'  
2018-Jan-12 15:00N 45°38' W 122°42'0 0.0
2018-Jan-12 14:30N 45°38' W 122°42'0 0.0
2018-Jan-12 13:57N 45°38' W 122°42'0 0.0
2018-Jan-12 13:30N 45°38' W 122°42'0 0.0
2018-Jan-12 13:00N 45°38' W 122°42'0 0.0
2018-Jan-12 12:30N 45°38' W 122°42'0 0.0
2018-Jan-12 12:00N 45°38' W 122°42'0 0.0
2018-Jan-12 11:30N 45°38' W 122°42'0 0.0
2018-Jan-12 11:00N 45°38' W 122°42'0 0.0
2018-Jan-12 10:30N 45°38' W 122°42'0 0.0
2018-Jan-12 09:57N 45°38' W 122°42'0 0.0
2018-Jan-12 09:30N 45°38' W 122°42'0 0.0
2018-Jan-12 09:00N 45°38' W 122°42'0 0.0
2018-Jan-12 08:30N 45°38' W 122°42'0 0.0
2018-Jan-12 08:00N 45°38' W 122°42'0 0.0
2018-Jan-12 07:30N 45°38' W 122°42'0 0.0
2018-Jan-12 07:00N 45°38' W 122°42'0 0.0
2018-Jan-12 06:30N 45°38' W 122°42'0 0.0
2018-Jan-12 06:00N 45°38' W 122°42'0 0.0
2018-Jan-12 05:30N 45°38' W 122°42'0 0.0
2018-Jan-12 05:00N 45°38' W 122°42'0 0.0
2018-Jan-12 04:30N 45°38' W 122°42'0 0.0
2018-Jan-12 04:00N 45°38' W 122°42'0 0.0
2018-Jan-12 03:27N 45°38' W 122°42'0 0.0
2018-Jan-12 03:00N 45°38' W 122°42'0 0.0
2018-Jan-12 02:30N 45°38' W 122°42'0 0.0
2018-Jan-12 02:00N 45°38' W 122°42'0 0.0
2018-Jan-12 01:30N 45°38' W 122°42'0 0.0
2018-Jan-12 01:00N 45°38' W 122°42'0 0.0
2018-Jan-12 00:30N 45°38' W 122°42'0 0.0
2018-Jan-11 23:59N 45°38' W 122°42'0 0.0
2018-Jan-11 23:29N 45°38' W 122°42'0 0.0
2018-Jan-11 22:59N 45°38' W 122°42'0 0.0
2018-Jan-11 22:29N 45°38' W 122°42'0 0.0
2018-Jan-11 21:59N 45°38' W 122°42'0 0.0
2018-Jan-11 21:29N 45°38' W 122°42'0 0.0
2018-Jan-11 20:59N 45°38' W 122°42'0 0.0
2018-Jan-11 20:29N 45°38' W 122°42'0 0.0
2018-Jan-11 19:59N 45°38' W 122°42'0 0.0
2018-Jan-11 19:29N 45°38' W 122°42'0 0.0
2018-Jan-11 18:59N 45°38' W 122°42'0 0.0
2018-Jan-11 18:29N 45°38' W 122°42'0 0.0
2018-Jan-11 17:59N 45°38' W 122°42'0 0.0
2018-Jan-11 17:29N 45°38' W 122°42'0 0.0
2018-Jan-11 16:59N 45°38' W 122°42'0 0.0
2018-Jan-11 16:29N 45°38' W 122°42'0 0.0
2018-Jan-11 15:59N 45°38' W 122°42'0 0.0
2018-Jan-11 15:29N 45°38' W 122°42'0 0.0
2018-Jan-11 14:59N 45°38' W 122°42'0 0.0
2018-Jan-11 14:29N 45°38' W 122°42'0 0.0
2018-Jan-11 13:56N 45°38' W 122°42'0 0.0
2018-Jan-11 13:29N 45°38' W 122°42'0 0.0
2018-Jan-11 12:59N 45°38' W 122°42'0 0.0
2018-Jan-11 12:29N 45°38' W 122°42'0 0.0
2018-Jan-11 11:59N 45°38' W 122°42'0 0.0
2018-Jan-11 11:29N 45°38' W 122°42'0 0.0
2018-Jan-11 10:59N 45°38' W 122°42'0 0.0
2018-Jan-11 10:29N 45°38' W 122°42'0 0.0
2018-Jan-11 09:59N 45°38' W 122°42'0 0.0
2018-Jan-11 09:29N 45°38' W 122°42'0 0.0
2018-Jan-11 08:59N 45°38' W 122°42'0 0.0
2018-Jan-11 08:29N 45°38' W 122°42'0 0.0
2018-Jan-11 07:59N 45°38' W 122°42'0 0.0
2018-Jan-11 07:29N 45°38' W 122°42'0 0.0
2018-Jan-11 06:59N 45°38' W 122°42'0 0.0
2018-Jan-11 06:29N 45°38' W 122°42'0 0.0
2018-Jan-11 05:59N 45°38' W 122°42'0 0.0
2018-Jan-11 05:29N 45°38' W 122°42'0 0.0
2018-Jan-11 04:59N 45°38' W 122°42'0 0.0
2018-Jan-11 04:29N 45°38' W 122°42'0 0.0
2018-Jan-11 03:59N 45°38' W 122°42'0 0.0
2018-Jan-11 03:29N 45°38' W 122°42'0 0.0
2018-Jan-11 02:59N 45°38' W 122°42'0 0.0
2018-Jan-11 02:29N 45°38' W 122°42'0 0.0
2018-Jan-11 01:59N 45°38' W 122°42'0 0.0
2018-Jan-11 01:29N 45°38' W 122°42'0 0.0
2018-Jan-11 00:59N 45°38' W 122°42'0 0.0
2018-Jan-11 00:29N 45°38' W 122°42'0 0.0
2018-Jan-10 23:59N 45°38' W 122°42'0 0.0
2018-Jan-10 23:30N 45°38' W 122°42'0 0.0
2018-Jan-10 22:59N 45°38' W 122°42'0 0.0
2018-Jan-10 22:29N 45°38' W 122°42'0 0.0
2018-Jan-10 21:59N 45°38' W 122°42'0 0.0
2018-Jan-10 21:29N 45°38' W 122°42'0 0.0
2018-Jan-10 20:59N 45°38' W 122°42'0 0.0
2018-Jan-10 20:29N 45°38' W 122°42'0 0.0
2018-Jan-10 19:59N 45°38' W 122°42'0 0.0
2018-Jan-10 19:29N 45°38' W 122°42'0 0.0
2018-Jan-10 18:59N 45°38' W 122°42'  
Track history (hours):
 
Tides and Currents Weather Stations Pressure Air Temp Water Temp Dewpoint Dewpoint Depression Visibility Wind Speed Wind Dir Waves Ship Positions

Edgar Oldendorff

Last reported at 2018-Jan-20 18:33 UTC. Time now 2018-Jan-21 23:56 UTC.
Position N 45°47' W 125°32'.

Length 179 m; draft 8.8 m.

Type: Cargo ship. MMSI: 255805893.

Date/timePositionNaut miles runAvg speedWind from/ knotsBaromVisibWave heightAir tempDewpointWater temp
2018-Jan-20 18:33N 45°47' W 125°32'1 8.8
2018-Jan-20 18:27N 45°47' W 125°31'4 8.8
2018-Jan-20 17:59N 45°48' W 125°25'5 9.4
2018-Jan-20 17:30N 45°50' W 125°19'4 8.9
2018-Jan-20 17:00N 45°52' W 125°13'5 9.1
2018-Jan-20 16:30N 45°54' W 125°07'4 8.9
2018-Jan-20 16:00N 45°55' W 125°02'4 8.6
2018-Jan-20 15:30N 45°57' W 124°56'4 8.7
2018-Jan-20 15:00N 45°59' W 124°50'4 9.0
2018-Jan-20 14:30N 46°01' W 124°45'4 8.9
2018-Jan-20 14:00N 46°03' W 124°39'4 8.9
2018-Jan-20 13:30N 46°05' W 124°33'5 9.1
2018-Jan-20 13:00N 46°07' W 124°27'4 8.8
2018-Jan-20 12:30N 46°09' W 124°22'4 8.5
2018-Jan-20 12:00N 46°11' W 124°16'5 8.4
2018-Jan-20 11:25N 46°13' W 124°10'3 7.4
2018-Jan-20 11:00N 46°15' W 124°06'4 8.6
2018-Jan-20 10:30N 46°14' W 123°60'510.1
2018-Jan-20 10:00N 46°11' W 123°54'4 8.1
2018-Jan-20 09:30N 46°12' W 123°48'5 9.2
2018-Jan-20 09:00N 46°15' W 123°42'612.0
2018-Jan-20 08:30N 46°15' W 123°34'611.3
2018-Jan-20 08:00N 46°14' W 123°26'611.3
2018-Jan-20 07:30N 46°09' W 123°23'713.7
2018-Jan-20 07:00N 46°10' W 123°13'613.0
2018-Jan-20 06:31N 46°09' W 123°04'611.3
2018-Jan-20 06:00N 46°06' W 122°57'0 0.2
2018-Jan-20 05:30N 46°06' W 122°57'0 0.0
2018-Jan-20 05:00N 46°06' W 122°57'0 0.0
2018-Jan-20 04:30N 46°06' W 122°57'0 0.0
2018-Jan-20 04:01N 46°06' W 122°57'0 0.0
2018-Jan-20 03:31N 46°06' W 122°57'0 0.0
2018-Jan-20 02:57N 46°06' W 122°57'0 0.0
2018-Jan-20 02:27N 46°06' W 122°57'0 0.0
2018-Jan-20 02:00N 46°06' W 122°57'0 0.0
2018-Jan-20 01:30N 46°06' W 122°57'0 0.0
2018-Jan-20 01:00N 46°06' W 122°57'0 0.0
2018-Jan-19 23:42N 46°06' W 122°57'0 0.0
2018-Jan-19 23:30N 46°06' W 122°57'0 0.0
2018-Jan-19 23:00N 46°06' W 122°57'0 0.0
2018-Jan-19 21:51N 46°06' W 122°57'0 0.0
2018-Jan-19 21:24N 46°06' W 122°57'0 0.0
2018-Jan-19 21:00N 46°06' W 122°57'0 0.0
2018-Jan-19 20:27N 46°06' W 122°57'0 0.0
2018-Jan-19 20:01N 46°06' W 122°57'0 0.0
2018-Jan-19 19:15N 46°06' W 122°57'0 0.0
2018-Jan-19 19:01N 46°06' W 122°57'0 0.0
2018-Jan-19 18:30N 46°06' W 122°57'0 0.0
2018-Jan-19 18:00N 46°06' W 122°57'0 0.0
2018-Jan-19 17:30N 46°06' W 122°57'0 0.0
2018-Jan-19 17:00N 46°06' W 122°57'0 0.0
2018-Jan-19 16:30N 46°06' W 122°57'0 0.0
2018-Jan-19 16:00N 46°06' W 122°57'0 0.0
2018-Jan-19 15:28N 46°06' W 122°57'0 0.0
2018-Jan-19 15:00N 46°06' W 122°57'0 0.0
2018-Jan-19 14:27N 46°06' W 122°57'0 0.0
2018-Jan-19 14:00N 46°06' W 122°57'0 0.0
2018-Jan-19 13:31N 46°06' W 122°57'0 0.0
2018-Jan-19 13:00N 46°06' W 122°57'0 0.0
2018-Jan-19 12:27N 46°06' W 122°57'0 0.0
2018-Jan-19 11:51N 46°06' W 122°57'0 0.0
2018-Jan-19 11:30N 46°06' W 122°57'0 0.0
2018-Jan-19 10:57N 46°06' W 122°57'0 0.0
2018-Jan-19 10:21N 46°06' W 122°57'0 0.0
2018-Jan-19 09:57N 46°06' W 122°57'0 0.0
2018-Jan-19 09:31N 46°06' W 122°57'0 0.0
2018-Jan-19 09:01N 46°06' W 122°57'0 0.0
2018-Jan-19 08:16N 46°06' W 122°57'0 0.0
2018-Jan-19 08:00N 46°06' W 122°57'0 0.0
2018-Jan-19 07:30N 46°06' W 122°57'0 0.0
2018-Jan-19 06:57N 46°06' W 122°57'0 0.0
2018-Jan-19 06:28N 46°06' W 122°57'0 0.0
2018-Jan-19 06:01N 46°06' W 122°57'0 0.0
2018-Jan-19 05:30N 46°06' W 122°57'0 0.0
2018-Jan-19 04:57N 46°06' W 122°57'0 0.0
2018-Jan-19 04:27N 46°06' W 122°57'0 0.0
2018-Jan-19 04:01N 46°06' W 122°57'0 0.0
2018-Jan-19 03:24N 46°06' W 122°57'0 0.0
2018-Jan-19 03:00N 46°06' W 122°57'0 0.0
2018-Jan-19 02:27N 46°06' W 122°57'0 0.0
2018-Jan-19 02:00N 46°06' W 122°57'0 0.0
2018-Jan-19 01:30N 46°06' W 122°57'0 0.0
2018-Jan-19 00:42N 46°06' W 122°57'0 0.0
2018-Jan-19 00:31N 46°06' W 122°57'0 0.0
2018-Jan-19 00:00N 46°06' W 122°57'0 0.0
2018-Jan-18 23:27N 46°06' W 122°57'0 0.0
2018-Jan-18 23:00N 46°06' W 122°57'0 0.0
2018-Jan-18 22:27N 46°06' W 122°57'0 0.0
2018-Jan-18 22:00N 46°06' W 122°57'0 0.0
2018-Jan-18 21:31N 46°06' W 122°57'0 0.0
2018-Jan-18 20:42N 46°06' W 122°57'0 0.0
2018-Jan-18 20:31N 46°06' W 122°57'0 0.0
2018-Jan-18 20:00N 46°06' W 122°57'0 0.0
2018-Jan-18 19:30N 46°06' W 122°57'0 0.0
2018-Jan-18 19:00N 46°06' W 122°57'0 0.0
2018-Jan-18 18:27N 46°06' W 122°57'0 0.0
2018-Jan-18 18:00N 46°06' W 122°57'0 0.0
2018-Jan-18 17:31N 46°06' W 122°57'0 0.0
2018-Jan-18 16:57N 46°06' W 122°57'0 0.0
2018-Jan-18 16:30N 46°06' W 122°57'0 0.0
2018-Jan-18 15:57N 46°06' W 122°57'0 0.0
2018-Jan-18 15:27N 46°06' W 122°57'0 0.0
2018-Jan-18 15:00N 46°06' W 122°57'0 0.0
2018-Jan-18 14:30N 46°06' W 122°57'0 0.0
2018-Jan-18 14:00N 46°06' W 122°57'0 0.0
2018-Jan-18 13:27N 46°06' W 122°57'0 0.0
2018-Jan-18 12:48N 46°06' W 122°57'0 0.0
2018-Jan-18 12:31N 46°06' W 122°57'0 0.0
2018-Jan-18 12:01N 46°06' W 122°57'0 0.0
2018-Jan-18 11:31N 46°06' W 122°57'0 0.0
2018-Jan-18 11:00N 46°06' W 122°57'0 0.0
2018-Jan-18 10:30N 46°06' W 122°57'0 0.0
2018-Jan-18 10:00N 46°06' W 122°57'0 0.0
2018-Jan-18 09:30N 46°06' W 122°57'0 0.0
2018-Jan-18 08:58N 46°06' W 122°57'0 0.0
2018-Jan-18 08:31N 46°06' W 122°57'0 0.0
2018-Jan-18 07:58N 46°06' W 122°57'0 0.0
2018-Jan-18 07:30N 46°06' W 122°57'0 0.0
2018-Jan-18 06:57N 46°06' W 122°57'0 0.0
2018-Jan-18 06:27N 46°06' W 122°57'0 0.0
2018-Jan-18 06:00N 46°06' W 122°57'0 0.0
2018-Jan-18 05:30N 46°06' W 122°57'0 0.0
2018-Jan-18 05:00N 46°06' W 122°57'0 0.0
2018-Jan-18 04:31N 46°06' W 122°57'0 0.0
2018-Jan-18 04:00N 46°06' W 122°57'0 0.0
2018-Jan-18 03:30N 46°06' W 122°57'0 0.0
2018-Jan-18 03:01N 46°06' W 122°57'0 0.0
2018-Jan-18 02:28N 46°06' W 122°57'0 0.0
2018-Jan-18 01:42N 46°06' W 122°57'0 0.0
2018-Jan-18 01:19N 46°06' W 122°57'0 0.0
2018-Jan-18 01:00N 46°06' W 122°57'0 0.0
2018-Jan-18 00:01N 46°06' W 122°57'0 0.0
2018-Jan-17 23:57N 46°06' W 122°57'  
2018-Jan-12 15:00N 45°38' W 122°42'0 0.0
2018-Jan-12 14:30N 45°38' W 122°42'0 0.0
2018-Jan-12 13:57N 45°38' W 122°42'0 0.0
2018-Jan-12 13:30N 45°38' W 122°42'0 0.0
2018-Jan-12 13:00N 45°38' W 122°42'0 0.0
2018-Jan-12 12:30N 45°38' W 122°42'0 0.0
2018-Jan-12 12:00N 45°38' W 122°42'0 0.0
2018-Jan-12 11:30N 45°38' W 122°42'0 0.0
2018-Jan-12 11:00N 45°38' W 122°42'0 0.0
2018-Jan-12 10:30N 45°38' W 122°42'0 0.0
2018-Jan-12 09:57N 45°38' W 122°42'0 0.0
2018-Jan-12 09:30N 45°38' W 122°42'0 0.0
2018-Jan-12 09:00N 45°38' W 122°42'0 0.0
2018-Jan-12 08:30N 45°38' W 122°42'0 0.0
2018-Jan-12 08:00N 45°38' W 122°42'0 0.0
2018-Jan-12 07:30N 45°38' W 122°42'0 0.0
2018-Jan-12 07:00N 45°38' W 122°42'0 0.0
2018-Jan-12 06:30N 45°38' W 122°42'0 0.0
2018-Jan-12 06:00N 45°38' W 122°42'0 0.0
2018-Jan-12 05:30N 45°38' W 122°42'0 0.0
2018-Jan-12 05:00N 45°38' W 122°42'0 0.0
2018-Jan-12 04:30N 45°38' W 122°42'0 0.0
2018-Jan-12 04:00N 45°38' W 122°42'0 0.0
2018-Jan-12 03:27N 45°38' W 122°42'0 0.0
2018-Jan-12 03:00N 45°38' W 122°42'0 0.0
2018-Jan-12 02:30N 45°38' W 122°42'0 0.0
2018-Jan-12 02:00N 45°38' W 122°42'0 0.0
2018-Jan-12 01:30N 45°38' W 122°42'0 0.0
2018-Jan-12 01:00N 45°38' W 122°42'0 0.0
2018-Jan-12 00:30N 45°38' W 122°42'0 0.0
2018-Jan-11 23:59N 45°38' W 122°42'0 0.0
2018-Jan-11 23:29N 45°38' W 122°42'0 0.0
2018-Jan-11 22:59N 45°38' W 122°42'0 0.0
2018-Jan-11 22:29N 45°38' W 122°42'0 0.0
2018-Jan-11 21:59N 45°38' W 122°42'0 0.0
2018-Jan-11 21:29N 45°38' W 122°42'0 0.0
2018-Jan-11 20:59N 45°38' W 122°42'0 0.0
2018-Jan-11 20:29N 45°38' W 122°42'0 0.0
2018-Jan-11 19:59N 45°38' W 122°42'0 0.0
2018-Jan-11 19:29N 45°38' W 122°42'0 0.0
2018-Jan-11 18:59N 45°38' W 122°42'0 0.0
2018-Jan-11 18:29N 45°38' W 122°42'0 0.0
2018-Jan-11 17:59N 45°38' W 122°42'0 0.0
2018-Jan-11 17:29N 45°38' W 122°42'0 0.0
2018-Jan-11 16:59N 45°38' W 122°42'0 0.0
2018-Jan-11 16:29N 45°38' W 122°42'0 0.0
2018-Jan-11 15:59N 45°38' W 122°42'0 0.0
2018-Jan-11 15:29N 45°38' W 122°42'0 0.0
2018-Jan-11 14:59N 45°38' W 122°42'0 0.0
2018-Jan-11 14:29N 45°38' W 122°42'0 0.0
2018-Jan-11 13:56N 45°38' W 122°42'0 0.0
2018-Jan-11 13:29N 45°38' W 122°42'0 0.0
2018-Jan-11 12:59N 45°38' W 122°42'0 0.0
2018-Jan-11 12:29N 45°38' W 122°42'0 0.0
2018-Jan-11 11:59N 45°38' W 122°42'0 0.0
2018-Jan-11 11:29N 45°38' W 122°42'0 0.0
2018-Jan-11 10:59N 45°38' W 122°42'0 0.0
2018-Jan-11 10:29N 45°38' W 122°42'0 0.0
2018-Jan-11 09:59N 45°38' W 122°42'0 0.0
2018-Jan-11 09:29N 45°38' W 122°42'0 0.0
2018-Jan-11 08:59N 45°38' W 122°42'0 0.0
2018-Jan-11 08:29N 45°38' W 122°42'0 0.0
2018-Jan-11 07:59N 45°38' W 122°42'0 0.0
2018-Jan-11 07:29N 45°38' W 122°42'0 0.0
2018-Jan-11 06:59N 45°38' W 122°42'0 0.0
2018-Jan-11 06:29N 45°38' W 122°42'0 0.0
2018-Jan-11 05:59N 45°38' W 122°42'0 0.0
2018-Jan-11 05:29N 45°38' W 122°42'0 0.0
2018-Jan-11 04:59N 45°38' W 122°42'0 0.0
2018-Jan-11 04:29N 45°38' W 122°42'0 0.0
2018-Jan-11 03:59N 45°38' W 122°42'0 0.0
2018-Jan-11 03:29N 45°38' W 122°42'0 0.0
2018-Jan-11 02:59N 45°38' W 122°42'0 0.0
2018-Jan-11 02:29N 45°38' W 122°42'0 0.0
2018-Jan-11 01:59N 45°38' W 122°42'0 0.0
2018-Jan-11 01:29N 45°38' W 122°42'0 0.0
2018-Jan-11 00:59N 45°38' W 122°42'0 0.0
2018-Jan-11 00:29N 45°38' W 122°42'0 0.0
2018-Jan-10 23:59N 45°38' W 122°42'0 0.0
2018-Jan-10 23:30N 45°38' W 122°42'0 0.0
2018-Jan-10 22:59N 45°38' W 122°42'0 0.0
2018-Jan-10 22:29N 45°38' W 122°42'0 0.0
2018-Jan-10 21:59N 45°38' W 122°42'0 0.0
2018-Jan-10 21:29N 45°38' W 122°42'0 0.0
2018-Jan-10 20:59N 45°38' W 122°42'0 0.0
2018-Jan-10 20:29N 45°38' W 122°42'0 0.0
2018-Jan-10 19:59N 45°38' W 122°42'0 0.0
2018-Jan-10 19:29N 45°38' W 122°42'0 0.0
2018-Jan-10 18:59N 45°38' W 122°42'  

Dump ship's entire track history